Besiktas Bosphorus — TCOG3 — position and weather

sailwx.info

Track history (hours):
 
Tides and Currents Weather Stations Pressure Air Temp Water Temp Dewpoint Dewpoint Depression Visibility Wind Speed Wind Dir Waves Ship Positions

Besiktas Bosphorus

Last reported at 2016-Apr-27 13:33 UTC. Time now 2016-May-01 19:22 UTC.
Position N 30°41' W 013°57'.

Length 274 m; draft 9 m.

Type: Tanker. MMSI: 271000817.

Date/timePositionNaut miles runAvg speedWind from/ knotsBaromVisibWave heightAir tempDewpointWater temp
2016-Apr-27 13:33N 30°41' W 013°57'3 2.5
2016-Apr-27 12:11N 30°44' W 013°55'812.3
2016-Apr-27 11:31N 30°52' W 013°51'17313.3
2016-Apr-26 22:28N 33°35' W 012°43'5213.4
2016-Apr-26 18:33N 34°24' W 012°21'12013.3
2016-Apr-26 09:32N 36°17' W 011°29'1313.4
2016-Apr-26 08:33N 36°29' W 011°23'1813.4
2016-Apr-26 07:14N 36°46' W 011°17'1113.0
2016-Apr-26 06:21N 36°57' W 011°12'2513.2
2016-Apr-26 04:30N 37°20' W 011°01'2613.1
2016-Apr-26 02:33N 37°44' W 010°51'1313.1
2016-Apr-26 01:31N 37°57' W 010°45'1313.1
2016-Apr-26 00:31N 38°09' W 010°39'1313.1
2016-Apr-25 23:33N 38°20' W 010°32'1313.4
2016-Apr-25 22:33N 38°33' W 010°26'1413.5
2016-Apr-25 21:33N 38°46' W 010°20'1413.7
2016-Apr-25 20:33N 38°59' W 010°16'1413.6
2016-Apr-25 19:33N 39°12' W 010°13'1413.5
2016-Apr-25 18:33N 39°26' W 010°12'1413.4
2016-Apr-25 17:32N 39°39' W 010°12'  
2016-Apr-23 12:18N 49°40' W 003°48'1114.5
2016-Apr-23 11:31N 49°46' W 003°33'1313.8
2016-Apr-23 10:33N 49°52' W 003°15'1312.6
2016-Apr-23 09:33N 49°58' W 002°58'1111.4
2016-Apr-23 08:33N 50°01' W 002°40'7312.2
2016-Apr-23 02:31N 49°46' W 000°49'1414.4
2016-Apr-23 01:33N 49°39' W 000°30'1413.6
2016-Apr-23 00:33N 49°32' W 000°12'1312.6
2016-Apr-22 23:33N 49°29' E 000°06'2 2.0
2016-Apr-22 22:33N 49°28' E 000°09'0 0.0
2016-Apr-22 21:33N 49°28' E 000°09'0 0.0
2016-Apr-22 20:33N 49°28' E 000°09'0 0.0
2016-Apr-22 19:33N 49°28' E 000°09'0 0.0
2016-Apr-22 18:33N 49°28' E 000°09'0 0.0
2016-Apr-22 17:33N 49°28' E 000°09'0 0.0
2016-Apr-22 16:33N 49°28' E 000°09'0 0.0
2016-Apr-22 15:33N 49°28' E 000°09'0 0.0
2016-Apr-22 14:33N 49°28' E 000°09'0 0.0
2016-Apr-22 13:33N 49°28' E 000°09'0 0.0
2016-Apr-22 12:33N 49°28' E 000°09'0 0.0
2016-Apr-22 11:33N 49°28' E 000°09'0 0.0
2016-Apr-22 10:33N 49°28' E 000°09'0 0.0
2016-Apr-22 09:33N 49°28' E 000°09'0 0.0
2016-Apr-22 08:33N 49°28' E 000°09'0 0.0
2016-Apr-22 07:33N 49°28' E 000°09'0 0.0
2016-Apr-22 06:33N 49°28' E 000°09'0 0.0
2016-Apr-22 05:33N 49°28' E 000°09'0 0.0
2016-Apr-22 04:33N 49°28' E 000°09'0 0.0
2016-Apr-22 03:33N 49°28' E 000°09'0 0.0
2016-Apr-22 02:33N 49°28' E 000°09'0 0.0
2016-Apr-22 01:33N 49°28' E 000°09'0 0.0
2016-Apr-22 00:33N 49°28' E 000°09'0 0.0
2016-Apr-21 23:33N 49°28' E 000°09'0 0.0
2016-Apr-21 22:33N 49°28' E 000°09'0 0.4
2016-Apr-21 21:33N 49°28' E 000°09'1110.9
2016-Apr-21 20:33N 49°32' W 000°07'8 8.0
2016-Apr-21 19:33N 49°36' W 000°18'0 0.3
2016-Apr-21 18:33N 49°36' W 000°17'0 0.1
2016-Apr-21 17:33N 49°36' W 000°18'0 0.1
2016-Apr-21 16:33N 49°36' W 000°18'0 0.0
2016-Apr-21 15:33N 49°36' W 000°18'0 0.0
2016-Apr-21 14:33N 49°36' W 000°18'0 0.0
2016-Apr-21 13:33N 49°36' W 000°18'2 2.2
2016-Apr-21 12:33N 49°37' W 000°20'6 5.6
2016-Apr-21 11:33N 49°40' W 000°28'1010.4
2016-Apr-21 10:33N 49°48' W 000°39'1313.3
2016-Apr-21 09:33N 49°57' W 000°54'1313.1
2016-Apr-21 08:32N 50°09' W 000°60'2210.7
2016-Apr-21 06:29N 50°24' W 000°34'1213.3
2016-Apr-21 05:33N 50°27' W 000°15'1514.7
2016-Apr-21 04:34N 50°31' E 000°07'1515.5
2016-Apr-21 03:34N 50°35' E 000°30'2215.0
2016-Apr-21 02:07N 50°47' E 000°60'814.2
2016-Apr-21 01:33N 50°51' E 001°10'1312.6
2016-Apr-21 00:33N 50°60' E 001°25'1211.9
2016-Apr-20 23:33N 51°08' E 001°38'1212.5
2016-Apr-20 22:33N 51°19' E 001°49'1414.4
2016-Apr-20 21:33N 51°31' E 002°00'1615.8
2016-Apr-20 20:33N 51°43' E 002°18'1615.9
2016-Apr-20 19:32N 51°54' E 002°37'1515.3
2016-Apr-20 18:32N 52°00' E 002°59'1514.7
2016-Apr-20 17:31N 52°03' E 003°23'1414.3
2016-Apr-20 16:33N 52°04' E 003°45'1110.9
2016-Apr-20 15:33N 51°60' E 004°02'6 6.0
2016-Apr-20 14:33N 51°56' E 004°10'0 0.0
2016-Apr-20 13:31N 51°56' E 004°10'0 0.0
2016-Apr-20 12:31N 51°56' E 004°10'0 0.0
2016-Apr-20 11:31N 51°56' E 004°10'0 0.0
2016-Apr-20 10:28N 51°56' E 004°10'0 0.0
2016-Apr-20 09:31N 51°56' E 004°10'0 0.0
2016-Apr-20 08:31N 51°56' E 004°10'0 0.0
2016-Apr-20 07:28N 51°56' E 004°10'0 0.0
2016-Apr-20 06:31N 51°56' E 004°10'0 0.0
2016-Apr-20 05:31N 51°56' E 004°10'0 0.0
2016-Apr-20 04:31N 51°56' E 004°10'0 0.0
2016-Apr-20 03:31N 51°56' E 004°10'0 0.0
2016-Apr-20 02:31N 51°56' E 004°10'0 0.0
2016-Apr-20 01:31N 51°56' E 004°10'0 0.0
2016-Apr-20 00:31N 51°56' E 004°10'0 0.0
2016-Apr-19 23:22N 51°56' E 004°10'0 0.0
2016-Apr-19 22:28N 51°56' E 004°10'0 0.0
2016-Apr-19 21:31N 51°56' E 004°10'0 0.0
2016-Apr-19 20:31N 51°56' E 004°10'0 0.0
2016-Apr-19 19:28N 51°56' E 004°10'0 0.0
2016-Apr-19 18:31N 51°56' E 004°10'0 0.0
2016-Apr-19 17:28N 51°56' E 004°10'0 0.0
2016-Apr-19 16:31N 51°56' E 004°10'0 0.0
2016-Apr-19 15:28N 51°56' E 004°10'0 0.0
2016-Apr-19 14:25N 51°56' E 004°10'0 0.0
2016-Apr-19 13:28N 51°56' E 004°10'0 0.2
2016-Apr-19 12:31N 51°57' E 004°10'3 3.2
2016-Apr-19 11:33N 51°58' E 004°06'8 8.2
2016-Apr-19 10:33N 52°02' E 003°53'7 7.4
2016-Apr-19 09:33N 52°01' E 003°41'1 1.2
2016-Apr-19 08:33N 52°01' E 003°39'54 8.9
2016-Apr-19 02:33N 51°36' E 002°22'1413.3
2016-Apr-19 01:32N 51°26' E 002°08'1313.7
2016-Apr-19 00:33N 51°16' E 001°54'1414.2
2016-Apr-18 23:34N 51°05' E 001°39'1514.8
2016-Apr-18 22:34N 50°53' E 001°27'1514.5
2016-Apr-18 21:32N 50°39' E 001°16'4113.8
2016-Apr-18 18:33N 50°22' E 000°17'1414.4
2016-Apr-18 17:33N 50°18' W 000°04'1414.1
2016-Apr-18 16:33N 50°15' W 000°26'9511.9
2016-Apr-18 08:33N 49°50' W 002°50'1313.2
2016-Apr-18 07:33N 49°45' W 003°08'  
Track history (hours):
 
Tides and Currents Weather Stations Pressure Air Temp Water Temp Dewpoint Dewpoint Depression Visibility Wind Speed Wind Dir Waves Ship Positions

Besiktas Bosphorus

Last reported at 2016-Apr-27 13:33 UTC. Time now 2016-May-01 19:22 UTC.
Position N 30°41' W 013°57'.

Length 274 m; draft 9 m.

Type: Tanker. MMSI: 271000817.

Date/timePositionNaut miles runAvg speedWind from/ knotsBaromVisibWave heightAir tempDewpointWater temp
2016-Apr-27 13:33N 30°41' W 013°57'3 2.5
2016-Apr-27 12:11N 30°44' W 013°55'812.3
2016-Apr-27 11:31N 30°52' W 013°51'17313.3
2016-Apr-26 22:28N 33°35' W 012°43'5213.4
2016-Apr-26 18:33N 34°24' W 012°21'12013.3
2016-Apr-26 09:32N 36°17' W 011°29'1313.4
2016-Apr-26 08:33N 36°29' W 011°23'1813.4
2016-Apr-26 07:14N 36°46' W 011°17'1113.0
2016-Apr-26 06:21N 36°57' W 011°12'2513.2
2016-Apr-26 04:30N 37°20' W 011°01'2613.1
2016-Apr-26 02:33N 37°44' W 010°51'1313.1
2016-Apr-26 01:31N 37°57' W 010°45'1313.1
2016-Apr-26 00:31N 38°09' W 010°39'1313.1
2016-Apr-25 23:33N 38°20' W 010°32'1313.4
2016-Apr-25 22:33N 38°33' W 010°26'1413.5
2016-Apr-25 21:33N 38°46' W 010°20'1413.7
2016-Apr-25 20:33N 38°59' W 010°16'1413.6
2016-Apr-25 19:33N 39°12' W 010°13'1413.5
2016-Apr-25 18:33N 39°26' W 010°12'1413.4
2016-Apr-25 17:32N 39°39' W 010°12'  
2016-Apr-23 12:18N 49°40' W 003°48'1114.5
2016-Apr-23 11:31N 49°46' W 003°33'1313.8
2016-Apr-23 10:33N 49°52' W 003°15'1312.6
2016-Apr-23 09:33N 49°58' W 002°58'1111.4
2016-Apr-23 08:33N 50°01' W 002°40'7312.2
2016-Apr-23 02:31N 49°46' W 000°49'1414.4
2016-Apr-23 01:33N 49°39' W 000°30'1413.6
2016-Apr-23 00:33N 49°32' W 000°12'1312.6
2016-Apr-22 23:33N 49°29' E 000°06'2 2.0
2016-Apr-22 22:33N 49°28' E 000°09'0 0.0
2016-Apr-22 21:33N 49°28' E 000°09'0 0.0
2016-Apr-22 20:33N 49°28' E 000°09'0 0.0
2016-Apr-22 19:33N 49°28' E 000°09'0 0.0
2016-Apr-22 18:33N 49°28' E 000°09'0 0.0
2016-Apr-22 17:33N 49°28' E 000°09'0 0.0
2016-Apr-22 16:33N 49°28' E 000°09'0 0.0
2016-Apr-22 15:33N 49°28' E 000°09'0 0.0
2016-Apr-22 14:33N 49°28' E 000°09'0 0.0
2016-Apr-22 13:33N 49°28' E 000°09'0 0.0
2016-Apr-22 12:33N 49°28' E 000°09'0 0.0
2016-Apr-22 11:33N 49°28' E 000°09'0 0.0
2016-Apr-22 10:33N 49°28' E 000°09'0 0.0
2016-Apr-22 09:33N 49°28' E 000°09'0 0.0
2016-Apr-22 08:33N 49°28' E 000°09'0 0.0
2016-Apr-22 07:33N 49°28' E 000°09'0 0.0
2016-Apr-22 06:33N 49°28' E 000°09'0 0.0
2016-Apr-22 05:33N 49°28' E 000°09'0 0.0
2016-Apr-22 04:33N 49°28' E 000°09'0 0.0
2016-Apr-22 03:33N 49°28' E 000°09'0 0.0
2016-Apr-22 02:33N 49°28' E 000°09'0 0.0
2016-Apr-22 01:33N 49°28' E 000°09'0 0.0
2016-Apr-22 00:33N 49°28' E 000°09'0 0.0
2016-Apr-21 23:33N 49°28' E 000°09'0 0.0
2016-Apr-21 22:33N 49°28' E 000°09'0 0.4
2016-Apr-21 21:33N 49°28' E 000°09'1110.9
2016-Apr-21 20:33N 49°32' W 000°07'8 8.0
2016-Apr-21 19:33N 49°36' W 000°18'0 0.3
2016-Apr-21 18:33N 49°36' W 000°17'0 0.1
2016-Apr-21 17:33N 49°36' W 000°18'0 0.1
2016-Apr-21 16:33N 49°36' W 000°18'0 0.0
2016-Apr-21 15:33N 49°36' W 000°18'0 0.0
2016-Apr-21 14:33N 49°36' W 000°18'0 0.0
2016-Apr-21 13:33N 49°36' W 000°18'2 2.2
2016-Apr-21 12:33N 49°37' W 000°20'6 5.6
2016-Apr-21 11:33N 49°40' W 000°28'1010.4
2016-Apr-21 10:33N 49°48' W 000°39'1313.3
2016-Apr-21 09:33N 49°57' W 000°54'1313.1
2016-Apr-21 08:32N 50°09' W 000°60'2210.7
2016-Apr-21 06:29N 50°24' W 000°34'1213.3
2016-Apr-21 05:33N 50°27' W 000°15'1514.7
2016-Apr-21 04:34N 50°31' E 000°07'1515.5
2016-Apr-21 03:34N 50°35' E 000°30'2215.0
2016-Apr-21 02:07N 50°47' E 000°60'814.2
2016-Apr-21 01:33N 50°51' E 001°10'1312.6
2016-Apr-21 00:33N 50°60' E 001°25'1211.9
2016-Apr-20 23:33N 51°08' E 001°38'1212.5
2016-Apr-20 22:33N 51°19' E 001°49'1414.4
2016-Apr-20 21:33N 51°31' E 002°00'1615.8
2016-Apr-20 20:33N 51°43' E 002°18'1615.9
2016-Apr-20 19:32N 51°54' E 002°37'1515.3
2016-Apr-20 18:32N 52°00' E 002°59'1514.7
2016-Apr-20 17:31N 52°03' E 003°23'1414.3
2016-Apr-20 16:33N 52°04' E 003°45'1110.9
2016-Apr-20 15:33N 51°60' E 004°02'6 6.0
2016-Apr-20 14:33N 51°56' E 004°10'0 0.0
2016-Apr-20 13:31N 51°56' E 004°10'0 0.0
2016-Apr-20 12:31N 51°56' E 004°10'0 0.0
2016-Apr-20 11:31N 51°56' E 004°10'0 0.0
2016-Apr-20 10:28N 51°56' E 004°10'0 0.0
2016-Apr-20 09:31N 51°56' E 004°10'0 0.0
2016-Apr-20 08:31N 51°56' E 004°10'0 0.0
2016-Apr-20 07:28N 51°56' E 004°10'0 0.0
2016-Apr-20 06:31N 51°56' E 004°10'0 0.0
2016-Apr-20 05:31N 51°56' E 004°10'0 0.0
2016-Apr-20 04:31N 51°56' E 004°10'0 0.0
2016-Apr-20 03:31N 51°56' E 004°10'0 0.0
2016-Apr-20 02:31N 51°56' E 004°10'0 0.0
2016-Apr-20 01:31N 51°56' E 004°10'0 0.0
2016-Apr-20 00:31N 51°56' E 004°10'0 0.0
2016-Apr-19 23:22N 51°56' E 004°10'0 0.0
2016-Apr-19 22:28N 51°56' E 004°10'0 0.0
2016-Apr-19 21:31N 51°56' E 004°10'0 0.0
2016-Apr-19 20:31N 51°56' E 004°10'0 0.0
2016-Apr-19 19:28N 51°56' E 004°10'0 0.0
2016-Apr-19 18:31N 51°56' E 004°10'0 0.0
2016-Apr-19 17:28N 51°56' E 004°10'0 0.0
2016-Apr-19 16:31N 51°56' E 004°10'0 0.0
2016-Apr-19 15:28N 51°56' E 004°10'0 0.0
2016-Apr-19 14:25N 51°56' E 004°10'0 0.0
2016-Apr-19 13:28N 51°56' E 004°10'0 0.2
2016-Apr-19 12:31N 51°57' E 004°10'3 3.2
2016-Apr-19 11:33N 51°58' E 004°06'8 8.2
2016-Apr-19 10:33N 52°02' E 003°53'7 7.4
2016-Apr-19 09:33N 52°01' E 003°41'1 1.2
2016-Apr-19 08:33N 52°01' E 003°39'54 8.9
2016-Apr-19 02:33N 51°36' E 002°22'1413.3
2016-Apr-19 01:32N 51°26' E 002°08'1313.7
2016-Apr-19 00:33N 51°16' E 001°54'1414.2
2016-Apr-18 23:34N 51°05' E 001°39'1514.8
2016-Apr-18 22:34N 50°53' E 001°27'1514.5
2016-Apr-18 21:32N 50°39' E 001°16'4113.8
2016-Apr-18 18:33N 50°22' E 000°17'1414.4
2016-Apr-18 17:33N 50°18' W 000°04'1414.1
2016-Apr-18 16:33N 50°15' W 000°26'9511.9
2016-Apr-18 08:33N 49°50' W 002°50'1313.2
2016-Apr-18 07:33N 49°45' W 003°08'  

Dump ship's entire track history